Time;durP1;ratioP1;P1;durP2;ratioP2;P2;SDS_P1;SDS_P2;PMS_P1;PMS_P2;Temp;Humidity;BMP_temperature;BMP_pressure;BME280_temperature;BME280_humidity;BME280_pressure;Samples;Min_cycle;Max_cycle;Signal;HPM_P1;HPM_P2
2023/05/17 00:00:58;;;;;;;3.05;2.08;;;;;;;9.35;86.07;102579.53;5021392;28;20237;-74
2023/05/17 00:03:23;;;;;;;9.70;2.50;;;;;;;9.35;86.63;102572.59;5021488;28;20037;-74
2023/05/17 00:05:49;;;;;;;7.53;2.17;;;;;;;9.36;87.03;102568.22;5023853;28;20033;-74
2023/05/17 00:08:14;;;;;;;7.07;2.88;;;;;;;9.33;86.95;102565.63;5039770;28;20032;-74
2023/05/17 00:10:40;;;;;;;9.45;2.80;;;;;;;9.34;87.38;102569.97;5020830;28;20226;-74
2023/05/17 00:13:05;;;;;;;6.13;2.58;;;;;;;9.33;87.69;102570.84;5020860;28;20040;-74
2023/05/17 00:15:31;;;;;;;6.32;2.67;;;;;;;9.33;87.74;102563.88;5020188;28;20071;-74
2023/05/17 00:17:57;;;;;;;6.78;2.67;;;;;;;9.34;88.26;102567.38;5038999;28;20048;-74
2023/05/17 00:20:22;;;;;;;7.82;2.72;;;;;;;9.35;87.66;102580.44;5022605;28;20037;-74
2023/05/17 00:22:48;;;;;;;9.68;3.00;;;;;;;9.36;87.90;102576.06;5024594;28;20037;-74
2023/05/17 00:25:14;;;;;;;4.63;2.40;;;;;;;9.35;88.17;102582.16;5020854;28;20036;-74
2023/05/17 00:27:40;;;;;;;7.60;3.17;;;;;;;9.36;88.75;102583.91;5024179;28;20092;-74
2023/05/17 00:30:06;;;;;;;8.05;3.20;;;;;;;9.36;88.81;102583.91;5024339;28;20387;-74
2023/05/17 00:32:32;;;;;;;4.95;3.15;;;;;;;9.35;89.01;102577.81;5032273;28;20032;-74
2023/05/17 00:34:57;;;;;;;4.15;2.35;;;;;;;9.36;88.56;102586.53;5020821;28;20256;-74
2023/05/17 00:37:23;;;;;;;10.63;3.55;;;;;;;9.35;88.52;102580.44;5020809;28;20060;-74
2023/05/17 00:39:48;;;;;;;9.13;3.60;;;;;;;9.37;88.69;102578.66;5027061;28;20271;-74
2023/05/17 00:42:14;;;;;;;4.00;2.47;;;;;;;9.39;88.31;102581.28;5020108;28;20332;-74
2023/05/17 00:44:40;;;;;;;6.93;2.90;;;;;;;9.39;88.33;102571.69;5016976;28;20082;-74
2023/05/17 00:47:06;;;;;;;7.82;2.90;;;;;;;9.37;88.17;102564.72;5017578;28;20064;-74
2023/05/17 00:49:31;;;;;;;7.85;2.80;;;;;;;9.35;88.53;102572.59;5016917;28;20132;-74
2023/05/17 00:51:57;;;;;;;10.25;2.80;;;;;;;9.35;88.36;102571.69;5018145;28;20290;-74
2023/05/17 00:54:24;;;;;;;7.47;3.05;;;;;;;9.36;88.65;102576.91;5016932;28;20050;-74
2023/05/17 00:56:51;;;;;;;6.00;3.25;;;;;;;9.35;88.25;102569.97;5016534;28;20033;-74
2023/05/17 00:59:18;;;;;;;8.50;3.03;;;;;;;9.35;88.61;102577.81;5016743;28;20033;-74
2023/05/17 01:01:44;;;;;;;10.15;3.03;;;;;;;9.36;88.25;102578.69;5016574;28;20038;-74
2023/05/17 01:04:10;;;;;;;8.07;2.42;;;;;;;9.35;88.39;102579.53;5017080;28;20061;-74
2023/05/17 01:06:36;;;;;;;7.88;3.35;;;;;;;9.34;88.20;102583.91;5016642;28;20037;-74
2023/05/17 01:09:03;;;;;;;9.80;2.88;;;;;;;9.33;88.20;102579.59;5000613;28;20039;-74
2023/05/17 01:12:00;;;;;;;6.07;2.50;;;;;;;9.31;88.77;102580.44;5016594;28;20025;-74
2023/05/17 01:14:50;;;;;;;5.50;2.63;;;;;;;9.30;88.76;102574.38;5016568;28;20250;-74
2023/05/17 01:17:46;;;;;;;9.02;2.67;;;;;;;9.29;88.93;102564.78;5012798;28;20029;-74
2023/05/17 01:20:21;;;;;;;9.13;3.55;;;;;;;9.25;89.42;102581.38;4989314;28;20293;-74
2023/05/17 01:23:03;;;;;;;4.75;2.60;;;;;;;9.26;89.55;102566.53;5016034;28;20256;-74
2023/05/17 01:25:55;;;;;;;8.98;3.13;;;;;;;9.27;89.40;102579.59;5022289;28;20424;-74
2023/05/17 01:28:22;;;;;;;7.75;2.78;;;;;;;9.26;88.95;102567.44;5009716;28;20317;-74
2023/05/17 01:30:50;;;;;;;5.63;2.47;;;;;;;9.27;89.09;102560.44;5017080;28;20600;-74
2023/05/17 01:33:18;;;;;;;4.20;2.50;;;;;;;9.24;89.57;102571.81;5022897;28;20068;-74
2023/05/17 01:35:44;;;;;;;4.07;2.63;;;;;;;9.24;89.98;102566.59;5021370;28;20037;-74
2023/05/17 01:38:09;;;;;;;9.15;3.17;;;;;;;9.23;90.21;102570.91;5016277;28;20113;-74
2023/05/17 01:40:43;;;;;;;10.35;3.08;;;;;;;9.22;90.83;102569.19;5019477;28;20233;-74
2023/05/17 01:43:41;;;;;;;6.75;3.60;;;;;;;9.24;90.76;102577.03;5048162;28;20224;-74
2023/05/17 01:46:32;;;;;;;5.97;2.70;;;;;;;9.27;90.55;102578.75;4999024;28;20164;-74
2023/05/17 01:49:34;;;;;;;8.65;3.47;;;;;;;9.24;91.08;102582.25;5023165;28;20300;-74
2023/05/17 01:52:18;;;;;;;9.48;3.53;;;;;;;9.26;91.36;102579.63;5015122;28;20206;-74
2023/05/17 01:55:02;;;;;;;6.95;2.90;;;;;;;9.26;90.75;102582.22;5029488;28;20087;-74
2023/05/17 01:57:34;;;;;;;11.25;3.85;;;;;;;9.26;90.79;102587.47;5019635;28;20053;-74
2023/05/17 02:00:03;;;;;;;8.00;3.08;;;;;;;9.27;90.68;102582.22;5013572;28;20037;-74
2023/05/17 02:02:29;;;;;;;7.90;2.85;;;;;;;9.28;90.23;102583.97;5019111;28;20049;-74
2023/05/17 02:04:55;;;;;;;10.50;3.92;;;;;;;9.27;90.54;102582.22;5018514;28;20098;-74
2023/05/17 02:07:20;;;;;;;5.68;3.58;;;;;;;9.28;90.46;102575.25;5019506;28;20029;-74
2023/05/17 02:09:46;;;;;;;8.85;3.15;;;;;;;9.27;90.18;102579.59;5019433;28;20041;-74
2023/05/17 02:12:11;;;;;;;4.85;3.03;;;;;;;9.29;89.98;102583.06;5041063;28;20033;-74
2023/05/17 02:14:38;;;;;;;4.97;2.83;;;;;;;9.30;89.95;102578.72;5020134;28;20407;-74
2023/05/17 02:17:04;;;;;;;4.93;2.65;;;;;;;9.30;90.48;102570.88;5038181;28;20079;-74
2023/05/17 02:19:31;;;;;;;7.18;2.83;;;;;;;9.30;90.63;102568.28;5018864;28;20033;-74
2023/05/17 02:21:57;;;;;;;9.38;2.95;;;;;;;9.30;90.59;102573.50;5036706;28;20041;-74
2023/05/17 02:24:22;;;;;;;9.38;4.80;;;;;;;9.30;91.01;102583.97;5021924;28;20039;-74
2023/05/17 02:26:48;;;;;;;7.10;3.03;;;;;;;9.32;90.94;102574.34;5019894;28;20121;-74
2023/05/17 02:29:14;;;;;;;9.73;3.53;;;;;;;9.33;90.60;102586.53;5021072;28;20040;-74
2023/05/17 02:31:39;;;;;;;8.88;2.95;;;;;;;9.35;90.88;102583.03;5018364;28;20036;-74
2023/05/17 02:34:05;;;;;;;6.45;3.13;;;;;;;9.35;91.23;102587.38;5043148;28;20048;-74
2023/05/17 02:36:31;;;;;;;8.63;2.70;;;;;;;9.37;91.23;102580.44;5021039;28;20352;-74
2023/05/17 02:38:57;;;;;;;4.78;2.35;;;;;;;9.39;90.95;102582.13;5018727;28;20248;-74
2023/05/17 02:41:22;;;;;;;12.48;4.43;;;;;;;9.38;91.11;102583.00;5003891;28;20061;-74
2023/05/17 02:43:48;;;;;;;8.13;3.08;;;;;;;9.38;91.70;102575.16;5038315;28;20368;-74
2023/05/17 02:46:14;;;;;;;6.60;3.55;;;;;;;9.41;91.71;102579.50;5022926;28;20037;-74
2023/05/17 02:48:40;;;;;;;6.03;2.35;;;;;;;9.41;91.46;102585.59;5006096;28;20063;-74
2023/05/17 02:51:06;;;;;;;4.80;2.97;;;;;;;9.42;91.97;102581.22;5022625;28;20040;-74
2023/05/17 02:53:32;;;;;;;7.47;2.58;;;;;;;9.42;91.79;102586.47;5022300;28;20033;-74
2023/05/17 02:55:57;;;;;;;8.50;3.22;;;;;;;9.45;91.83;102589.06;5022273;28;20424;-74
2023/05/17 02:58:26;;;;;;;9.30;3.10;;;;;;;9.45;92.03;102593.44;5007461;28;20087;-74
2023/05/17 03:00:52;;;;;;;11.55;4.35;;;;;;;9.44;92.27;102587.34;5022477;28;20057;-74
2023/05/17 03:03:18;;;;;;;13.38;3.95;;;;;;;9.44;93.85;102589.06;5022522;28;20101;-74
2023/05/17 03:05:44;;;;;;;10.57;3.85;;;;;;;9.45;94.36;102586.44;5021703;28;20252;-74
2023/05/17 03:08:09;;;;;;;13.43;3.20;;;;;;;9.45;94.43;102596.03;5014631;28;20033;-74
2023/05/17 03:10:35;;;;;;;11.07;3.88;;;;;;;9.47;94.25;102591.66;5039453;28;20098;-74
2023/05/17 03:13:01;;;;;;;14.55;3.97;;;;;;;9.47;94.78;102602.13;5040404;28;20053;-74
2023/05/17 03:15:28;;;;;;;11.40;3.72;;;;;;;9.48;94.85;102602.13;5039920;28;20037;-74
2023/05/17 03:17:55;;;;;;;9.30;3.45;;;;;;;9.48;95.55;102598.63;5042159;28;20068;-74
2023/05/17 03:20:21;;;;;;;10.68;3.60;;;;;;;9.48;95.54;102596.91;5022045;28;20225;-74
2023/05/17 03:22:47;;;;;;;6.25;3.33;;;;;;;9.49;95.84;102595.13;5042630;28;20044;-74
2023/05/17 03:25:13;;;;;;;7.10;2.97;;;;;;;9.50;95.91;102597.75;5022105;28;20044;-74
2023/05/17 03:27:39;;;;;;;11.38;3.65;;;;;;;9.49;96.09;102595.13;5027290;28;20054;-74
2023/05/17 03:30:05;;;;;;;9.13;3.80;;;;;;;9.51;96.10;102590.75;5022986;28;20036;-74
2023/05/17 03:32:30;;;;;;;10.90;3.58;;;;;;;9.52;96.04;102602.97;5021778;28;20040;-74
2023/05/17 03:34:56;;;;;;;11.43;3.63;;;;;;;9.52;95.89;102597.72;5021658;28;20049;-74
2023/05/17 03:37:22;;;;;;;10.48;3.60;;;;;;;9.52;96.04;102602.97;5022110;28;20383;-74
2023/05/17 03:39:48;;;;;;;9.60;3.17;;;;;;;9.53;95.66;102605.56;5023008;28;20053;-74
2023/05/17 03:42:13;;;;;;;9.30;3.28;;;;;;;9.52;95.74;102602.97;5044784;28;20047;-74
2023/05/17 03:44:39;;;;;;;13.57;3.60;;;;;;;9.49;95.72;102609.06;5023504;28;20033;-74
2023/05/17 03:47:06;;;;;;;13.43;3.67;;;;;;;9.51;95.76;102607.31;5024101;28;20041;-74
2023/05/17 03:49:31;;;;;;;11.50;3.42;;;;;;;9.51;95.86;102615.16;5022023;28;20029;-74
2023/05/17 03:51:57;;;;;;;7.53;3.22;;;;;;;9.53;95.59;102612.53;5040008;28;20052;-74
2023/05/17 03:54:23;;;;;;;13.63;3.15;;;;;;;9.55;95.46;102614.28;5021656;28;20065;-74
2023/05/17 03:56:49;;;;;;;15.70;4.05;;;;;;;9.57;95.51;102622.97;5042682;28;20256;-74
2023/05/17 03:59:15;;;;;;;12.30;3.65;;;;;;;9.59;95.42;102620.34;5025466;28;20035;-74
2023/05/17 04:01:42;;;;;;;10.80;2.85;;;;;;;9.61;95.39;102623.81;5023131;28;20036;-74
2023/05/17 04:04:08;;;;;;;11.98;3.33;;;;;;;9.61;95.26;102631.66;5008493;28;20053;-74
2023/05/17 04:06:33;;;;;;;11.15;2.85;;;;;;;9.62;95.06;102625.53;5038655;28;20238;-74
2023/05/17 04:08:59;;;;;;;9.85;2.85;;;;;;;9.59;94.17;102622.97;5039628;28;20266;-74
2023/05/17 04:11:26;;;;;;;12.93;3.58;;;;;;;9.61;93.60;102632.53;5024576;28;20045;-74
2023/05/17 04:13:52;;;;;;;17.70;3.22;;;;;;;9.58;93.29;102639.53;5023004;28;20032;-74
2023/05/17 04:16:18;;;;;;;15.00;3.40;;;;;;;9.59;93.28;102633.44;5023428;28;20108;-74
2023/05/17 04:18:44;;;;;;;9.15;3.33;;;;;;;9.63;93.08;102642.13;5030798;28;20037;-74
2023/05/17 04:21:10;;;;;;;8.35;2.60;;;;;;;9.65;92.49;102643.81;5023004;28;20076;-74
2023/05/17 04:23:36;;;;;;;15.25;3.58;;;;;;;9.61;91.82;102650.84;5046150;28;20103;-74
2023/05/17 04:26:03;;;;;;;10.23;2.53;;;;;;;9.65;91.69;102649.06;5014423;28;20056;-74
2023/05/17 04:28:30;;;;;;;12.40;2.65;;;;;;;9.67;91.43;102652.53;5022900;28;20037;-74
2023/05/17 04:30:56;;;;;;;10.85;3.00;;;;;;;9.67;91.15;102659.53;5027560;28;20040;-74
2023/05/17 04:33:23;;;;;;;5.63;2.30;;;;;;;9.68;90.84;102669.09;5022495;28;20052;-74
2023/05/17 04:35:49;;;;;;;15.27;3.35;;;;;;;9.67;90.47;102659.53;5008057;28;20048;-74
2023/05/17 04:38:15;;;;;;;12.40;3.33;;;;;;;9.67;90.29;102675.22;5021351;28;20488;-74
2023/05/17 04:40:41;;;;;;;13.57;3.22;;;;;;;9.66;90.29;102671.75;5026419;28;20344;-74
2023/05/17 04:43:07;;;;;;;11.60;2.72;;;;;;;9.69;90.05;102682.16;5023728;28;20936;-74
2023/05/17 04:45:34;;;;;;;20.10;3.55;;;;;;;9.64;89.91;102683.06;5037777;28;20097;-74
2023/05/17 04:47:59;;;;;;;11.18;3.08;;;;;;;9.67;90.08;102683.94;5020912;28;20037;-74
2023/05/17 04:50:25;;;;;;;17.92;3.72;;;;;;;9.68;89.77;102684.78;5020491;28;20018;-74
2023/05/17 04:52:51;;;;;;;6.50;2.10;;;;;;;9.70;89.38;102693.50;5019922;28;20155;-74
2023/05/17 04:55:17;;;;;;;18.35;3.75;;;;;;;9.71;89.11;102693.47;5020978;28;20037;-74
2023/05/17 04:57:43;;;;;;;13.60;2.58;;;;;;;9.73;88.96;102696.09;5018760;28;20037;-74
2023/05/17 05:00:09;;;;;;;12.48;3.30;;;;;;;9.76;89.27;102702.16;5017938;28;20029;-74
2023/05/17 05:02:35;;;;;;;12.25;2.55;;;;;;;9.78;88.96;102707.38;5022889;28;20243;-74
2023/05/17 05:05:01;;;;;;;13.15;2.78;;;;;;;9.78;88.87;102705.63;5024514;28;20037;-74
2023/05/17 05:07:26;;;;;;;8.52;2.85;;;;;;;9.80;88.52;102711.75;5020028;28;20394;-75
2023/05/17 05:09:52;;;;;;;19.63;3.65;;;;;;;9.80;87.95;102718.72;5028508;28;20063;-74
2023/05/17 05:12:18;;;;;;;10.45;2.50;;;;;;;9.83;88.20;102725.69;5023264;28;20079;-74
2023/05/17 05:14:43;;;;;;;10.70;2.55;;;;;;;9.84;88.49;102723.06;5019919;28;20355;-74
2023/05/17 05:17:09;;;;;;;13.98;2.92;;;;;;;9.85;88.24;102726.53;5019755;28;20538;-74
2023/05/17 05:19:34;;;;;;;10.00;2.63;;;;;;;9.84;87.60;102735.25;5020975;28;20296;-74
2023/05/17 05:22:00;;;;;;;10.25;2.33;;;;;;;9.91;87.63;102731.72;5033929;28;20375;-74
2023/05/17 05:24:26;;;;;;;9.95;2.30;;;;;;;9.90;86.80;102733.47;5021578;28;20033;-74
2023/05/17 05:26:51;;;;;;;14.80;3.33;;;;;;;9.93;87.07;102733.47;5019811;28;20041;-74
2023/05/17 05:29:18;;;;;;;19.38;2.97;;;;;;;9.92;86.74;102734.34;5019363;28;20025;-74
2023/05/17 05:31:43;;;;;;;11.40;2.55;;;;;;;9.97;86.50;102739.53;5018444;28;20302;-74
2023/05/17 05:34:09;;;;;;;14.85;3.00;;;;;;;9.99;86.55;102740.41;5022292;28;20047;-74
2023/05/17 05:36:35;;;;;;;15.95;3.08;;;;;;;9.97;86.60;102743.03;5018673;28;20040;-74
2023/05/17 05:39:01;;;;;;;15.65;2.58;;;;;;;10.02;86.41;102745.59;5020084;28;20163;-74
2023/05/17 05:41:27;;;;;;;10.45;2.10;;;;;;;10.06;86.26;102749.03;5038452;28;20135;-74
2023/05/17 05:43:52;;;;;;;15.50;2.53;;;;;;;10.07;85.66;102756.03;5038051;28;20088;-74
2023/05/17 05:46:18;;;;;;;10.45;2.53;;;;;;;10.06;84.58;102759.53;5019592;28;20029;-74
2023/05/17 05:48:43;;;;;;;6.97;2.15;;;;;;;10.08;84.44;102763.88;5019778;28;20362;-74
2023/05/17 05:51:09;;;;;;;7.22;1.90;;;;;;;10.12;84.46;102770.81;5019083;28;20268;-74
2023/05/17 05:53:35;;;;;;;12.35;2.33;;;;;;;10.12;83.50;102769.97;5019823;28;20041;-74
2023/05/17 05:56:02;;;;;;;11.25;2.30;;;;;;;10.11;83.09;102782.16;5019081;28;20256;-74
2023/05/17 05:58:28;;;;;;;12.18;2.88;;;;;;;10.11;82.97;102783.91;5019024;28;20021;-74
2023/05/17 06:00:56;;;;;;;17.08;3.03;;;;;;;10.10;83.45;102785.69;5011916;28;20033;-74
2023/05/17 06:03:22;;;;;;;11.18;2.15;;;;;;;10.13;82.82;102787.38;5019358;28;20057;-75
2023/05/17 06:05:47;;;;;;;15.43;3.08;;;;;;;10.18;82.92;102793.47;5019506;28;20063;-74
2023/05/17 06:08:13;;;;;;;12.98;2.03;;;;;;;10.22;82.76;102796.94;5024580;28;20034;-74
2023/05/17 06:10:38;;;;;;;9.93;2.20;;;;;;;10.24;82.14;102784.69;5037093;28;20033;-74
2023/05/17 06:13:06;;;;;;;12.25;2.30;;;;;;;10.25;82.15;102795.16;5019967;28;20039;-75
2023/05/17 06:15:32;;;;;;;11.60;2.33;;;;;;;10.26;80.81;102796.91;5040834;28;20375;-74
2023/05/17 06:17:58;;;;;;;13.13;2.00;;;;;;;10.30;80.87;102788.13;5021748;28;20057;-74
2023/05/17 06:20:24;;;;;;;12.38;2.05;;;;;;;10.32;80.31;102782.91;5046169;28;20167;-75
2023/05/17 06:22:49;;;;;;;10.57;2.30;;;;;;;10.31;81.41;102791.66;5022754;28;20056;-74
2023/05/17 06:25:15;;;;;;;14.30;2.47;;;;;;;10.32;81.65;102794.25;5025280;28;20033;-74
2023/05/17 06:27:41;;;;;;;11.63;2.00;;;;;;;10.32;80.63;102798.63;5023575;28;20063;-75
2023/05/17 06:30:07;;;;;;;16.23;2.45;;;;;;;10.32;79.95;102798.63;5022521;28;20060;-74
2023/05/17 06:32:34;;;;;;;7.70;1.90;;;;;;;10.33;79.02;102796.00;5013130;28;20221;-74
2023/05/17 06:34:59;;;;;;;8.07;1.92;;;;;;;10.37;79.04;102808.19;5025873;28;20060;-75
2023/05/17 06:37:25;;;;;;;13.10;2.50;;;;;;;10.38;79.50;102803.81;5029978;28;20374;-74
2023/05/17 06:39:51;;;;;;;12.23;3.10;;;;;;;10.45;80.73;102800.25;5023098;28;20349;-74
2023/05/17 06:42:17;;;;;;;14.60;2.28;;;;;;;10.48;79.65;102805.47;5037234;28;20229;-74
2023/05/17 06:44:43;;;;;;;7.93;2.00;;;;;;;10.53;79.30;102808.94;5044452;28;20143;-74
2023/05/17 06:47:08;;;;;;;16.52;2.22;;;;;;;10.53;76.24;102808.03;5028782;28;20104;-74
2023/05/17 06:49:34;;;;;;;9.80;2.22;;;;;;;10.52;75.95;102816.81;5027729;28;20159;-74
2023/05/17 06:52:02;;;;;;;9.88;1.73;;;;;;;10.59;75.82;102813.25;5037999;28;20071;-74
2023/05/17 06:54:31;;;;;;;14.20;2.22;;;;;;;10.57;74.93;102817.63;5024002;28;20029;-74
2023/05/17 06:57:02;;;;;;;;;;;;;;;10.61;75.01;102810.63;5038736;28;20037;-74
2023/05/17 06:59:28;;;;;;;12.77;2.38;;;;;;;10.63;75.42;102814.09;5024166;28;20212;-74
2023/05/17 07:01:54;;;;;;;14.00;3.05;;;;;;;10.69;75.93;102820.13;5022565;28;20036;-74
2023/05/17 07:04:19;;;;;;;12.68;3.60;;;;;;;10.73;76.36;102823.56;5021520;28;20100;-74
2023/05/17 07:06:45;;;;;;;16.50;2.60;;;;;;;10.66;76.60;102822.78;5019861;28;20293;-74
2023/05/17 07:09:11;;;;;;;13.45;2.95;;;;;;;10.65;77.15;102831.50;5020191;28;20151;-74
2023/05/17 07:11:37;;;;;;;11.18;2.33;;;;;;;10.54;76.87;102831.59;5019860;28;20064;-74
2023/05/17 07:14:02;;;;;;;12.73;2.30;;;;;;;10.53;77.04;102842.09;5048133;28;20037;-74
2023/05/17 07:16:28;;;;;;;11.98;2.28;;;;;;;10.50;77.22;102829.06;5045157;28;20060;-74
2023/05/17 07:18:53;;;;;;;20.25;2.45;;;;;;;10.54;77.06;102831.59;5026322;28;20037;-75
2023/05/17 07:21:19;;;;;;;9.48;2.30;;;;;;;10.63;76.21;102835.03;5016368;28;20044;-74
2023/05/17 07:23:45;;;;;;;11.60;1.70;;;;;;;10.68;74.18;102846.34;5014961;28;20298;-74
2023/05/17 07:26:10;;;;;;;12.57;2.03;;;;;;;10.75;73.66;102843.66;5037577;28;20048;-74
2023/05/17 07:28:36;;;;;;;5.95;1.20;;;;;;;10.83;72.81;102845.34;5018843;28;20102;-74
2023/05/17 07:31:02;;;;;;;14.85;2.30;;;;;;;10.90;73.38;102842.63;5039560;28;20129;-74
2023/05/17 07:33:27;;;;;;;10.45;2.00;;;;;;;10.95;72.97;102843.47;5022294;28;20105;-74
2023/05/17 07:35:53;;;;;;;12.65;2.28;;;;;;;11.03;73.15;102846.00;5033571;28;20283;-74
2023/05/17 07:38:19;;;;;;;15.20;2.45;;;;;;;11.13;74.28;102849.38;5020679;28;20037;-74
2023/05/17 07:40:44;;;;;;;7.00;1.63;;;;;;;11.16;70.93;102851.13;5021933;28;20124;-74
2023/05/17 07:43:10;;;;;;;17.63;2.13;;;;;;;11.21;71.42;102855.44;5021518;28;20041;-74
2023/05/17 07:45:35;;;;;;;12.05;2.08;;;;;;;11.28;71.54;102861.47;5023046;28;20379;-74
2023/05/17 07:48:01;;;;;;;9.15;2.33;;;;;;;11.32;70.65;102843.06;5037528;28;20361;-74
2023/05/17 07:50:28;;;;;;;13.48;2.10;;;;;;;11.38;70.06;102855.22;5021568;28;20083;-74
2023/05/17 07:52:53;;;;;;;10.40;1.80;;;;;;;11.33;68.74;102865.78;5020885;28;20041;-74
2023/05/17 07:55:20;;;;;;;7.40;1.48;;;;;;;11.29;69.39;102863.19;5046002;28;20044;-74
2023/05/17 07:57:46;;;;;;;12.50;2.03;;;;;;;11.23;69.69;102869.38;5000348;28;20257;-75
2023/05/17 08:00:13;;;;;;;9.32;3.05;;;;;;;11.22;68.80;102866.78;5019325;28;20271;-74
2023/05/17 08:02:39;;;;;;;11.52;2.70;;;;;;;11.21;68.46;102868.53;5021107;28;20034;-75
2023/05/17 08:05:05;;;;;;;10.02;1.95;;;;;;;11.23;69.27;102866.75;5037274;28;20096;-74
2023/05/17 08:07:31;;;;;;;11.38;1.77;;;;;;;11.26;68.79;102877.22;5036381;28;20068;-74
2023/05/17 08:09:56;;;;;;;12.27;1.92;;;;;;;11.33;69.70;102872.75;5019191;28;20312;-74
2023/05/17 08:12:21;;;;;;;9.77;2.25;;;;;;;11.40;69.34;102870.94;5036615;28;20212;-74
2023/05/17 08:14:47;;;;;;;10.00;1.52;;;;;;;11.35;68.19;102878.88;5024674;28;20080;-74
2023/05/17 08:17:12;;;;;;;11.52;1.92;;;;;;;11.38;68.04;102872.72;5016202;28;20059;-74
2023/05/17 08:19:38;;;;;;;7.60;1.52;;;;;;;11.39;68.09;102877.06;5026504;28;20101;-74
2023/05/17 08:22:04;;;;;;;6.30;1.38;;;;;;;11.37;65.67;102881.47;5027193;28;20060;-74
2023/05/17 08:24:29;;;;;;;9.13;1.88;;;;;;;11.39;66.70;102880.59;5038325;28;20028;-74
2023/05/17 08:26:55;;;;;;;9.27;1.92;;;;;;;11.42;66.72;102879.66;5020557;28;20045;-74
2023/05/17 08:29:21;;;;;;;10.82;1.58;;;;;;;11.46;66.75;102886.59;5042114;28;20075;-74
2023/05/17 08:31:46;;;;;;;6.38;1.25;;;;;;;11.49;66.58;102890.06;5026610;28;20049;-74
2023/05/17 08:34:12;;;;;;;4.88;1.40;;;;;;;11.49;66.57;102884.81;5043096;28;20087;-74
2023/05/17 08:36:37;;;;;;;14.77;1.80;;;;;;;11.48;67.21;102890.09;5028014;28;20107;-74
2023/05/17 08:39:03;;;;;;;8.70;1.25;;;;;;;11.50;67.43;102888.34;5021042;28;20044;-74
2023/05/17 08:41:29;;;;;;;6.55;1.40;;;;;;;11.51;68.38;102882.19;5017267;28;20419;-74
2023/05/17 08:43:57;;;;;;;5.60;1.08;;;;;;;11.52;67.13;102889.19;5016016;28;20034;-74
2023/05/17 08:46:26;;;;;;;5.73;1.73;;;;;;;11.50;67.05;102883.09;5017258;28;20105;-74
2023/05/17 08:48:54;;;;;;;10.60;1.83;;;;;;;11.51;67.21;102884.81;5016163;28;20553;-75
2023/05/17 08:51:21;;;;;;;11.82;1.63;;;;;;;11.39;66.54;102885.81;5012379;28;20552;-75
2023/05/17 08:53:48;;;;;;;8.68;1.30;;;;;;;11.43;68.42;102881.41;5015976;28;20231;-74
2023/05/17 08:56:15;;;;;;;9.68;1.90;;;;;;;11.44;66.75;102884.03;5010517;28;20354;-75
2023/05/17 08:58:43;;;;;;;6.43;1.10;;;;;;;11.45;64.84;102884.88;5020937;28;20355;-75
2023/05/17 09:01:09;;;;;;;6.47;1.45;;;;;;;11.51;64.84;102888.31;5027602;28;20037;-74
2023/05/17 09:03:39;;;;;;;7.72;1.30;;;;;;;11.56;62.72;102890.00;5017136;28;20034;-75
2023/05/17 09:06:05;;;;;;;3.80;1.13;;;;;;;11.59;61.98;102882.06;5014408;28;20061;-75
2023/05/17 09:08:31;;;;;;;6.55;1.10;;;;;;;11.60;62.28;102889.94;5022584;28;20688;-74
2023/05/17 09:10:58;;;;;;;8.57;1.42;;;;;;;11.62;61.76;102890.78;5018635;28;20041;-74
2023/05/17 09:13:24;;;;;;;8.95;1.38;;;;;;;11.65;62.62;102887.28;5017733;28;20029;-74
2023/05/17 09:15:50;;;;;;;6.43;1.27;;;;;;;11.68;62.35;102890.72;5014690;28;20245;-74
2023/05/17 09:18:16;;;;;;;9.73;1.60;;;;;;;11.71;62.59;102890.69;5016365;28;20113;-74
2023/05/17 09:20:48;;;;;;;12.02;1.45;;;;;;;11.77;62.58;102888.84;5016366;28;20024;-74
2023/05/17 09:23:13;;;;;;;12.48;1.73;;;;;;;11.81;63.30;102895.81;5017303;28;20033;-74
2023/05/17 09:25:47;;;;;;;5.15;1.45;;;;;;;11.81;62.19;102890.56;5017213;28;20112;-74
2023/05/17 09:28:12;;;;;;;8.05;1.52;;;;;;;11.82;62.99;102892.28;5016663;28;20053;-74
2023/05/17 09:30:38;;;;;;;11.90;2.08;;;;;;;11.85;60.81;102893.13;5017125;28;20270;-74
2023/05/17 09:33:08;;;;;;;3.85;1.33;;;;;;;11.92;62.63;102893.09;5015650;28;20037;-74
2023/05/17 09:35:35;;;;;;;12.13;1.58;;;;;;;11.98;62.80;102893.00;5016110;28;20033;-74
2023/05/17 09:38:08;;;;;;;6.00;1.02;;;;;;;12.02;60.27;102892.06;5015266;28;20365;-74
2023/05/17 09:40:42;;;;;;;6.90;1.20;;;;;;;12.07;60.12;102887.63;5016456;28;20034;-74
2023/05/17 09:43:09;;;;;;;8.82;1.38;;;;;;;12.09;60.35;102897.19;5017235;28;20041;-75
2023/05/17 09:45:35;;;;;;;7.47;1.65;;;;;;;12.15;61.90;102884.88;5016319;28;20022;-74
2023/05/17 09:48:12;;;;;;;11.90;1.80;;;;;;;12.18;60.74;102892.72;5015025;28;20107;-74
2023/05/17 09:50:46;;;;;;;6.32;1.73;;;;;;;12.17;61.31;102891.84;5013982;28;20037;-74
2023/05/17 09:53:27;;;;;;;9.88;1.30;;;;;;;12.22;61.66;102895.25;5015888;28;20029;-75
2023/05/17 09:55:56;;;;;;;5.38;1.42;;;;;;;12.25;60.79;102904.88;5020824;28;20033;-75
2023/05/17 09:58:22;;;;;;;4.65;1.35;;;;;;;12.29;60.87;102902.16;5019126;28;20030;-75
2023/05/17 10:00:55;;;;;;;11.50;2.00;;;;;;;12.29;61.12;102896.91;5018954;28;20046;-74
2023/05/17 10:03:21;;;;;;;9.60;1.50;;;;;;;12.33;61.96;102896.88;5017059;28;20033;-74
2023/05/17 10:05:51;;;;;;;4.05;1.10;;;;;;;12.36;60.19;102892.44;5016167;28;20044;-74
2023/05/17 10:08:21;;;;;;;8.52;1.30;;;;;;;12.40;59.62;102902.00;5016152;28;20026;-75
2023/05/17 10:10:49;;;;;;;7.05;1.48;;;;;;;12.39;59.21;102891.53;5018592;28;20034;-75
2023/05/17 10:13:20;;;;;;;5.60;1.10;;;;;;;12.43;60.03;102898.47;5020073;28;20042;-75
2023/05/17 10:15:47;;;;;;;5.03;1.50;;;;;;;12.44;60.01;102890.56;5022684;28;20030;-75
2023/05/17 10:18:14;;;;;;;4.90;1.10;;;;;;;12.49;59.72;102885.22;5014718;28;20046;-75
2023/05/17 10:20:42;;;;;;;7.68;1.35;;;;;;;12.52;59.11;102897.47;5016258;28;20279;-75
2023/05/17 10:23:09;;;;;;;4.97;1.50;;;;;;;12.60;59.34;102892.94;5018451;28;20033;-75
2023/05/17 10:25:35;;;;;;;8.38;1.88;;;;;;;12.60;59.57;102893.78;4993856;28;20038;-74
2023/05/17 10:28:01;;;;;;;5.80;1.25;;;;;;;12.64;59.04;102894.59;5018654;28;20370;-75
2023/05/17 10:30:27;;;;;;;5.38;1.10;;;;;;;12.63;58.05;102893.75;5018731;28;20042;-75
2023/05/17 10:32:54;;;;;;;4.20;1.23;;;;;;;12.71;60.72;102900.66;5018937;28;20060;-75
2023/05/17 10:35:20;;;;;;;4.82;1.00;;;;;;;12.68;59.29;102899.81;5016004;28;20237;-74
2023/05/17 10:37:46;;;;;;;4.68;1.30;;;;;;;12.66;58.31;102893.72;5014656;28;20045;-74
2023/05/17 10:40:16;;;;;;;5.72;1.10;;;;;;;12.65;58.04;102891.97;5015336;28;20034;-75
2023/05/17 10:42:50;;;;;;;7.28;1.58;;;;;;;12.69;58.94;102895.41;5017737;28;20357;-75
2023/05/17 10:45:19;;;;;;;3.88;1.33;;;;;;;12.65;57.23;102899.00;5013130;28;20315;-75
2023/05/17 10:47:45;;;;;;;9.10;1.45;;;;;;;12.67;58.38;102905.94;5012905;28;20411;-75
2023/05/17 10:50:12;;;;;;;11.05;1.27;;;;;;;12.67;57.42;102902.44;5020909;28;20034;-74
2023/05/17 10:52:44;;;;;;;8.88;1.58;;;;;;;12.67;56.30;102900.69;5022361;28;20033;-74
2023/05/17 10:55:09;;;;;;;6.75;1.52;;;;;;;12.71;57.35;102892.75;5025183;28;20038;-74
2023/05/17 10:57:37;;;;;;;7.53;1.50;;;;;;;12.75;58.81;102897.94;5015481;28;20336;-74
2023/05/17 11:00:05;;;;;;;9.85;2.05;;;;;;;12.79;57.74;102904.88;4996979;28;20253;-75
2023/05/17 11:02:31;;;;;;;3.60;1.10;;;;;;;12.79;57.35;102897.00;5016171;28;20037;-75
2023/05/17 11:04:59;;;;;;;3.35;1.13;;;;;;;12.87;58.29;102895.09;5020782;28;20038;-75
2023/05/17 11:07:28;;;;;;;5.78;1.40;;;;;;;12.93;57.63;102894.09;5021536;28;20061;-75
2023/05/17 11:10:02;;;;;;;5.38;1.30;;;;;;;12.96;57.02;102898.47;5022514;28;20073;-75
2023/05/17 11:12:33;;;;;;;8.02;1.50;;;;;;;13.03;59.05;102900.09;5016639;28;20264;-75
2023/05/17 11:14:59;;;;;;;6.82;1.48;;;;;;;13.04;57.81;102899.19;5016296;28;20030;-75
2023/05/17 11:17:27;;;;;;;13.32;1.75;;;;;;;13.06;58.33;102902.63;5018290;28;20041;-75
2023/05/17 11:19:58;;;;;;;5.77;1.33;;;;;;;13.05;57.58;102903.56;5018233;28;20040;-75
2023/05/17 11:22:24;;;;;;;9.00;1.52;;;;;;;13.03;57.77;102910.59;5020796;28;20283;-75
2023/05/17 11:24:56;;;;;;;4.78;1.65;;;;;;;13.04;58.92;102899.19;5027290;28;20037;-75
2023/05/17 11:27:26;;;;;;;7.47;1.40;;;;;;;13.08;59.64;102906.13;5014181;28;20053;-75